createdAt,value
2019-02-02T00:02:00.151Z,1.30
2019-02-02T00:04:29.666Z,1.30
2019-02-02T00:06:59.231Z,1.30
2019-02-02T00:09:28.665Z,1.30
2019-02-02T00:11:58.045Z,1.20
2019-02-02T00:14:27.400Z,1.30
2019-02-02T00:16:57.015Z,1.30
2019-02-02T00:19:26.372Z,1.20
2019-02-02T00:22:07.448Z,1.20
2019-02-02T00:24:37.076Z,1.30
2019-02-02T00:27:06.535Z,1.30
2019-02-02T00:29:35.943Z,1.30
2019-02-02T00:32:05.591Z,1.30
2019-02-02T00:34:35.325Z,1.30
2019-02-02T00:37:04.948Z,1.30
2019-02-02T00:39:34.376Z,1.40
2019-02-02T00:42:03.987Z,1.30
2019-02-02T00:44:33.372Z,1.30
2019-02-02T00:47:02.775Z,1.30
2019-02-02T00:49:32.233Z,1.30
2019-02-02T00:52:02.468Z,1.30
2019-02-02T00:54:31.851Z,1.30
2019-02-02T00:57:01.433Z,1.30
2019-02-02T00:59:44.122Z,1.30
2019-02-02T01:02:13.596Z,1.30
2019-02-02T01:04:45.446Z,1.20
2019-02-02T01:07:14.954Z,1.20
2019-02-02T01:09:45.211Z,1.20
2019-02-02T01:12:14.753Z,1.20
2019-02-02T01:14:44.210Z,1.20
2019-02-02T01:17:13.736Z,1.20
2019-02-02T01:19:43.086Z,1.20
2019-02-02T01:22:12.551Z,1.20
2019-02-02T01:24:42.154Z,1.20
2019-02-02T01:27:11.616Z,1.10
2019-02-02T01:29:40.972Z,1.20
2019-02-02T01:32:10.506Z,1.10
2019-02-02T01:34:39.946Z,1.10
2019-02-02T01:37:09.318Z,1.10
2019-02-02T01:39:38.674Z,1.10
2019-02-02T01:42:08.187Z,1.10
2019-02-02T01:44:37.607Z,1.00
2019-02-02T01:47:07.105Z,1.00
2019-02-02T01:49:36.491Z,1.00
2019-02-02T01:52:06.045Z,1.00
2019-02-02T01:54:38.321Z,1.00
2019-02-02T01:57:06.725Z,1.00
2019-02-02T01:59:36.119Z,1.00
2019-02-02T02:02:05.650Z,1.00
2019-02-02T02:04:48.106Z,1.00
2019-02-02T02:07:17.562Z,0.90
2019-02-02T02:09:47.036Z,0.80
2019-02-02T02:12:16.527Z,0.70
2019-02-02T02:14:47.879Z,0.60
2019-02-02T02:17:17.398Z,0.60
2019-02-02T02:19:46.854Z,0.50
2019-02-02T02:22:16.203Z,0.40
2019-02-02T02:24:45.739Z,0.40
2019-02-02T02:27:15.818Z,0.40
2019-02-02T02:29:45.295Z,0.40
2019-02-02T02:32:14.722Z,0.40
2019-02-02T02:34:44.183Z,0.40
2019-02-02T02:37:13.747Z,0.50
2019-02-02T02:39:43.145Z,0.50
2019-02-02T02:42:12.506Z,0.50
2019-02-02T02:44:42.038Z,0.50
2019-02-02T02:47:11.517Z,0.60
2019-02-02T02:49:40.926Z,0.60
2019-02-02T02:52:10.425Z,0.70
2019-02-02T02:54:39.951Z,0.70
2019-02-02T02:57:09.320Z,0.80
2019-02-02T02:59:58.114Z,0.80
2019-02-02T03:02:27.582Z,0.80
2019-02-02T03:04:57.134Z,0.80
2019-02-02T03:07:26.619Z,0.70
2019-02-02T03:10:10.818Z,0.70
2019-02-02T03:12:40.291Z,0.60
2019-02-02T03:15:12.534Z,0.60
2019-02-02T03:17:44.908Z,0.60
2019-02-02T03:20:15.666Z,0.60
2019-02-02T03:22:45.447Z,0.60
2019-02-02T03:25:25.877Z,0.50
2019-02-02T03:27:55.420Z,0.40
2019-02-02T03:30:24.891Z,0.30
2019-02-02T03:32:54.351Z,0.20
2019-02-02T03:35:24.621Z,0.10
2019-02-02T03:37:54.041Z,0.00
2019-02-02T03:40:24.524Z,-0.10
2019-02-02T03:42:54.058Z,-0.20
2019-02-02T03:45:24.516Z,-0.20
2019-02-02T03:47:54.723Z,-0.30
2019-02-02T03:50:24.641Z,-0.20
2019-02-02T03:52:54.222Z,-0.30
2019-02-02T03:55:23.696Z,-0.30
2019-02-02T03:57:53.200Z,-0.50
2019-02-02T04:00:23.088Z,-0.60
2019-02-02T04:02:52.731Z,-0.60
2019-02-02T04:05:26.309Z,-0.70
2019-02-02T04:07:55.887Z,-0.70
2019-02-02T04:10:25.346Z,-0.80
2019-02-02T04:12:54.787Z,-0.90
2019-02-02T04:15:24.327Z,-1.10
2019-02-02T04:17:53.913Z,-1.10
2019-02-02T04:20:23.857Z,-1.20
2019-02-02T04:22:53.357Z,-1.30
2019-02-02T04:25:42.143Z,-1.40
2019-02-02T04:28:11.675Z,-1.50
2019-02-02T04:30:41.154Z,-1.60
2019-02-02T04:33:11.472Z,-1.60
2019-02-02T04:35:40.886Z,-1.50
2019-02-02T04:38:10.345Z,-1.40
2019-02-02T04:40:39.771Z,-1.40
2019-02-02T04:43:09.180Z,-1.30
2019-02-02T04:45:38.698Z,-1.30
2019-02-02T04:48:08.090Z,-1.30
2019-02-02T04:50:37.526Z,-1.30
2019-02-02T04:53:07.073Z,-1.50
2019-02-02T04:55:39.236Z,-1.60
2019-02-02T04:58:08.836Z,-1.60
2019-02-02T05:00:38.275Z,-1.70
2019-02-02T05:03:08.048Z,-1.70
2019-02-02T05:05:37.408Z,-1.70
2019-02-02T05:08:06.819Z,-1.60
2019-02-02T05:10:36.257Z,-1.60
2019-02-02T05:13:05.655Z,-1.50
2019-02-02T05:15:35.339Z,-1.50
2019-02-02T05:18:04.973Z,-1.40
2019-02-02T05:20:34.422Z,-1.50
2019-02-02T05:23:03.887Z,-1.70
2019-02-02T05:25:33.243Z,-1.60
2019-02-02T05:28:02.945Z,-1.50
2019-02-02T05:30:32.517Z,-1.60
2019-02-02T05:33:01.918Z,-1.80
2019-02-02T05:35:31.349Z,-1.80
2019-02-02T05:38:02.614Z,-1.90
2019-02-02T05:40:31.987Z,-1.80
2019-02-02T05:43:02.960Z,-1.80
2019-02-02T05:45:32.479Z,-1.80
2019-02-02T05:48:02.230Z,-1.90
2019-02-02T05:50:31.658Z,-1.80
2019-02-02T05:53:01.452Z,-1.80
2019-02-02T05:55:30.879Z,-1.70
2019-02-02T05:58:00.403Z,-1.70
2019-02-02T06:00:38.429Z,-1.70
2019-02-02T06:03:08.030Z,-1.70
2019-02-02T06:05:37.613Z,-1.70
2019-02-02T06:08:07.118Z,-1.60
2019-02-02T06:10:36.656Z,-1.60
2019-02-02T06:13:06.116Z,-1.60
2019-02-02T06:15:36.072Z,-1.60
2019-02-02T06:18:05.743Z,-1.50
2019-02-02T06:20:35.207Z,-1.40
2019-02-02T06:23:04.791Z,-1.30
2019-02-02T06:25:34.330Z,-1.30
2019-02-02T06:28:04.142Z,-1.20
2019-02-02T06:30:33.699Z,-1.20
2019-02-02T06:33:03.309Z,-1.10
2019-02-02T06:35:32.852Z,-1.10
2019-02-02T06:38:03.974Z,-1.00
2019-02-02T06:40:33.543Z,-0.90
2019-02-02T06:43:03.017Z,-0.90
2019-02-02T06:45:45.224Z,-0.80
2019-02-02T06:48:15.460Z,-0.90
2019-02-02T06:50:44.862Z,-1.00
2019-02-02T06:53:14.328Z,-0.90
2019-02-02T06:55:44.181Z,-0.70
2019-02-02T06:58:13.652Z,-0.60
2019-02-02T07:00:43.752Z,-0.40
2019-02-02T07:03:13.419Z,-0.30
2019-02-02T07:05:42.922Z,-0.30
2019-02-02T07:08:12.422Z,-0.20
2019-02-02T07:10:41.903Z,-0.30
2019-02-02T07:13:11.691Z,-0.30
2019-02-02T07:15:41.182Z,-0.30
2019-02-02T07:18:10.787Z,-0.20
2019-02-02T07:20:40.328Z,-0.20
2019-02-02T07:23:09.979Z,-0.20
2019-02-02T07:25:42.670Z,-0.20
2019-02-02T07:28:13.601Z,-0.20
2019-02-02T07:30:43.075Z,-0.10
2019-02-02T07:33:12.719Z,0.00
2019-02-02T07:35:42.429Z,0.00
2019-02-02T07:38:12.009Z,0.00
2019-02-02T07:40:41.395Z,0.00
2019-02-02T07:43:10.929Z,0.10
2019-02-02T07:45:40.362Z,0.10
2019-02-02T07:48:09.827Z,0.20
2019-02-02T07:50:39.213Z,0.20
2019-02-02T07:53:08.607Z,0.30
2019-02-02T07:55:37.996Z,0.30
2019-02-02T07:58:07.526Z,0.30
2019-02-02T08:00:41.525Z,0.40
2019-02-02T08:03:10.748Z,0.40
2019-02-02T08:05:40.178Z,0.40
2019-02-02T08:08:09.771Z,0.40
2019-02-02T08:10:39.208Z,0.50
2019-02-02T08:13:08.632Z,0.50
2019-02-02T08:15:38.150Z,0.50
2019-02-02T08:18:07.662Z,0.60
2019-02-02T08:20:37.122Z,0.70
2019-02-02T08:23:06.636Z,0.70
2019-02-02T08:25:36.031Z,0.80
2019-02-02T08:28:05.568Z,0.80
2019-02-02T08:30:36.229Z,0.90
2019-02-02T08:33:06.238Z,0.90
2019-02-02T08:35:37.438Z,0.90
2019-02-02T08:38:07.037Z,1.00
2019-02-02T08:40:36.884Z,1.00
2019-02-02T08:43:06.443Z,1.00
2019-02-02T08:45:35.948Z,1.00
2019-02-02T08:48:05.483Z,1.10
2019-02-02T08:50:36.709Z,1.10
2019-02-02T08:53:06.826Z,1.10
2019-02-02T08:55:36.444Z,1.20
2019-02-02T08:58:06.259Z,1.20
2019-02-02T09:00:35.880Z,1.20
2019-02-02T09:03:05.677Z,1.20
2019-02-02T09:05:35.273Z,1.20
2019-02-02T09:08:05.784Z,1.30
2019-02-02T09:10:35.352Z,1.30
2019-02-02T09:13:05.441Z,1.30
2019-02-02T09:15:35.098Z,1.30
2019-02-02T09:18:05.007Z,1.40
2019-02-02T09:20:35.094Z,1.40
2019-02-02T09:23:06.683Z,1.40
2019-02-02T09:25:35.965Z,1.40
2019-02-02T09:28:05.537Z,1.50
2019-02-02T09:30:36.401Z,1.50
2019-02-02T09:33:06.305Z,1.50
2019-02-02T09:35:35.895Z,1.50
2019-02-02T09:38:05.560Z,1.50
2019-02-02T09:40:35.181Z,1.50
2019-02-02T09:43:05.227Z,1.50
2019-02-02T09:45:34.692Z,1.50
2019-02-02T09:48:04.550Z,1.60
2019-02-02T09:50:33.991Z,1.60
2019-02-02T09:53:05.203Z,1.60
2019-02-02T09:55:34.634Z,1.60
2019-02-02T09:58:08.814Z,1.60
2019-02-02T10:00:38.978Z,1.60
2019-02-02T10:03:08.474Z,1.60
2019-02-02T10:05:38.029Z,1.70
2019-02-02T10:08:07.588Z,1.70
2019-02-02T10:10:37.138Z,1.70
2019-02-02T10:13:06.907Z,1.80
2019-02-02T10:15:36.607Z,1.80
2019-02-02T10:18:06.340Z,1.80
2019-02-02T10:20:36.098Z,1.90
2019-02-02T10:23:06.060Z,1.90
2019-02-02T10:25:37.003Z,1.90
2019-02-02T10:28:06.426Z,1.90
2019-02-02T10:30:38.772Z,1.90
2019-02-02T10:33:08.491Z,2.00
2019-02-02T10:35:37.968Z,1.90
2019-02-02T10:38:07.470Z,2.00
2019-02-02T10:40:37.197Z,2.00
2019-02-02T10:43:06.769Z,2.00
2019-02-02T10:45:36.376Z,2.10
2019-02-02T10:48:06.551Z,2.10
2019-02-02T10:50:36.095Z,2.10
2019-02-02T10:53:05.690Z,2.10
2019-02-02T10:55:35.798Z,2.10
2019-02-02T10:58:06.067Z,2.20
2019-02-02T11:00:38.002Z,2.20
2019-02-02T11:03:07.613Z,2.20
2019-02-02T11:05:37.179Z,2.20
2019-02-02T11:08:06.908Z,2.20
2019-02-02T11:10:36.503Z,2.10
2019-02-02T11:13:06.524Z,2.10
2019-02-02T11:15:36.213Z,2.10
2019-02-02T11:18:06.273Z,2.10
2019-02-02T11:20:37.313Z,2.10
2019-02-02T11:23:06.885Z,2.10
2019-02-02T11:25:36.532Z,2.10
2019-02-02T11:28:07.603Z,2.10
2019-02-02T11:30:37.143Z,2.10
2019-02-02T11:33:06.618Z,2.10
2019-02-02T11:35:36.055Z,2.10
2019-02-02T11:38:05.795Z,2.10
2019-02-02T11:40:35.861Z,2.10
2019-02-02T11:43:05.562Z,2.20
2019-02-02T11:45:35.075Z,2.20
2019-02-02T11:48:04.672Z,2.20
2019-02-02T11:50:34.072Z,2.20
2019-02-02T11:53:03.668Z,2.20
2019-02-02T11:55:33.164Z,2.20
2019-02-02T11:58:02.638Z,2.30
2019-02-02T12:00:40.312Z,2.30
2019-02-02T12:03:09.872Z,2.30
2019-02-02T12:05:39.437Z,2.30
2019-02-02T12:08:09.035Z,2.40
2019-02-02T12:10:38.475Z,2.40
2019-02-02T12:13:08.158Z,2.40
2019-02-02T12:15:37.608Z,2.40
2019-02-02T12:18:07.154Z,2.40
2019-02-02T12:20:36.691Z,2.40
2019-02-02T12:23:06.232Z,2.40
2019-02-02T12:25:35.730Z,2.40
2019-02-02T12:28:05.789Z,2.40
2019-02-02T12:30:35.612Z,2.40
2019-02-02T12:33:05.686Z,2.40
2019-02-02T12:35:35.338Z,2.30
2019-02-02T12:38:04.989Z,2.40
2019-02-02T12:40:34.557Z,2.40
2019-02-02T12:43:05.600Z,2.40
2019-02-02T12:45:38.077Z,2.40
2019-02-02T12:48:07.713Z,2.30
2019-02-02T12:50:37.242Z,2.40
2019-02-02T12:53:06.704Z,2.40
2019-02-02T12:55:36.142Z,2.40
2019-02-02T12:58:26.471Z,2.40
2019-02-02T13:00:58.907Z,2.50
2019-02-02T13:03:31.244Z,2.50
2019-02-02T13:06:01.007Z,2.50
2019-02-02T13:08:30.596Z,2.50
2019-02-02T13:11:00.054Z,2.50
2019-02-02T13:13:29.530Z,2.50
2019-02-02T13:15:58.999Z,2.50
2019-02-02T13:18:28.398Z,2.50
2019-02-02T13:20:57.931Z,2.40
2019-02-02T13:23:27.427Z,2.50
2019-02-02T13:26:04.967Z,2.40
2019-02-02T13:28:27.875Z,2.40
2019-02-02T13:30:57.287Z,2.50
2019-02-02T13:33:26.787Z,2.40
2019-02-02T13:35:56.267Z,2.50
2019-02-02T13:38:25.635Z,2.50
2019-02-02T13:40:55.155Z,2.50
2019-02-02T13:43:24.590Z,2.60
2019-02-02T13:45:54.063Z,2.60
2019-02-02T13:48:23.768Z,2.60
2019-02-02T13:50:53.311Z,2.60
2019-02-02T13:53:22.732Z,2.60
2019-02-02T13:55:52.127Z,2.70
2019-02-02T13:58:21.566Z,2.70
2019-02-02T14:00:51.686Z,2.70
2019-02-02T14:03:21.111Z,2.60
2019-02-02T14:05:50.569Z,2.70
2019-02-02T14:08:20.073Z,2.70
2019-02-02T14:10:49.711Z,2.70
2019-02-02T14:13:19.124Z,2.70
2019-02-02T14:15:48.658Z,2.70
2019-02-02T14:18:37.429Z,2.70
2019-02-02T14:21:07.812Z,2.80
2019-02-02T14:23:37.279Z,2.80
2019-02-02T14:26:06.891Z,2.80
2019-02-02T14:28:36.371Z,2.80
2019-02-02T14:31:05.899Z,2.80
2019-02-02T14:33:35.273Z,2.80
2019-02-02T14:36:05.095Z,2.80
2019-02-02T14:38:34.446Z,2.80
2019-02-02T14:41:04.253Z,2.80
2019-02-02T14:43:35.225Z,2.70
2019-02-02T14:46:04.816Z,2.80
2019-02-02T14:48:34.212Z,2.80
2019-02-02T14:51:03.680Z,2.80
2019-02-02T14:53:33.060Z,2.80
2019-02-02T14:56:02.555Z,2.90
2019-02-02T14:58:31.962Z,2.90
2019-02-02T15:01:01.433Z,2.90
2019-02-02T15:03:31.072Z,2.90
2019-02-02T15:06:00.514Z,2.90
2019-02-02T15:08:30.075Z,2.90
2019-02-02T15:11:02.658Z,2.90
2019-02-02T15:13:32.096Z,2.90
2019-02-02T15:16:01.580Z,2.90
2019-02-02T15:18:31.008Z,2.80
2019-02-02T15:21:00.476Z,2.80
2019-02-02T15:23:29.879Z,2.70
2019-02-02T15:26:00.858Z,2.70
2019-02-02T15:28:30.369Z,2.60
2019-02-02T15:30:59.890Z,2.60
2019-02-02T15:33:37.623Z,2.60
2019-02-02T15:36:00.519Z,2.60
2019-02-02T15:38:30.075Z,2.60
2019-02-02T15:40:59.818Z,2.70
2019-02-02T15:43:29.300Z,2.80
2019-02-02T15:45:58.880Z,2.90
2019-02-02T15:48:28.377Z,2.90
2019-02-02T15:50:58.095Z,2.90
2019-02-02T15:53:27.478Z,3.00
2019-02-02T15:55:57.060Z,3.00
2019-02-02T15:58:26.515Z,3.00
2019-02-02T16:00:55.980Z,3.00
2019-02-02T16:03:25.452Z,2.90
2019-02-02T16:05:54.841Z,2.90
2019-02-02T16:08:24.479Z,2.80
2019-02-02T16:10:53.974Z,2.70
2019-02-02T16:13:37.211Z,2.70
2019-02-02T16:16:09.837Z,2.60
2019-02-02T16:18:39.178Z,2.50
2019-02-02T16:21:08.594Z,2.50
2019-02-02T16:23:38.024Z,2.50
2019-02-02T16:26:07.638Z,2.50
2019-02-02T16:28:37.035Z,2.50
2019-02-02T16:31:06.577Z,2.40
2019-02-02T16:33:36.086Z,2.40
2019-02-02T16:36:05.531Z,2.40
2019-02-02T16:38:36.439Z,2.40
2019-02-02T16:41:06.040Z,2.40
2019-02-02T16:43:35.400Z,2.30
2019-02-02T16:46:05.772Z,2.30
2019-02-02T16:48:35.155Z,2.30
2019-02-02T16:51:04.623Z,2.40
2019-02-02T16:53:34.051Z,2.40
2019-02-02T16:56:03.665Z,2.50
2019-02-02T16:58:33.233Z,2.40
2019-02-02T17:01:02.776Z,2.50
2019-02-02T17:03:32.203Z,2.50
2019-02-02T17:06:01.688Z,2.50
2019-02-02T17:08:31.068Z,2.50
2019-02-02T17:11:00.675Z,2.40
2019-02-02T17:13:30.109Z,2.40
2019-02-02T17:15:59.644Z,2.40
2019-02-02T17:18:29.155Z,2.30
2019-02-02T17:20:58.624Z,2.40
2019-02-02T17:23:27.970Z,2.40
2019-02-02T17:25:57.748Z,2.30
2019-02-02T17:28:27.103Z,2.40
2019-02-02T17:30:57.353Z,2.40
2019-02-02T17:33:26.963Z,2.40
2019-02-02T17:35:56.686Z,2.40
2019-02-02T17:38:26.039Z,2.30
2019-02-02T17:40:55.487Z,2.40
2019-02-02T17:43:24.852Z,2.40
2019-02-02T17:45:54.310Z,2.40
2019-02-02T17:48:23.884Z,2.40
2019-02-02T17:50:53.484Z,2.40
2019-02-02T17:53:22.965Z,2.40
2019-02-02T17:55:52.365Z,2.40
2019-02-02T17:58:21.793Z,2.40
2019-02-02T18:00:52.975Z,2.40
2019-02-02T18:03:22.404Z,2.40
2019-02-02T18:05:51.986Z,2.40
2019-02-02T18:08:21.463Z,2.40
2019-02-02T18:10:52.404Z,2.40
2019-02-02T18:13:21.887Z,2.40
2019-02-02T18:15:51.290Z,2.40
2019-02-02T18:18:22.335Z,2.40
2019-02-02T18:20:51.755Z,2.40
2019-02-02T18:23:21.264Z,2.40
2019-02-02T18:25:50.737Z,2.40
2019-02-02T18:28:20.989Z,2.50
2019-02-02T18:30:50.647Z,2.50
2019-02-02T18:33:20.045Z,2.50
2019-02-02T18:35:49.800Z,2.50
2019-02-02T18:38:20.687Z,2.50
2019-02-02T18:40:51.774Z,2.50
2019-02-02T18:43:21.303Z,2.50
2019-02-02T18:45:52.489Z,2.50
2019-02-02T18:48:22.091Z,2.50
2019-02-02T18:50:51.610Z,2.50
2019-02-02T18:53:20.988Z,2.50
2019-02-02T18:55:53.455Z,2.50
2019-02-02T18:58:22.983Z,2.50
2019-02-02T19:00:54.471Z,2.50
2019-02-02T19:03:24.082Z,2.50
2019-02-02T19:05:53.666Z,2.50
2019-02-02T19:08:23.255Z,2.50
2019-02-02T19:10:52.617Z,2.60
2019-02-02T19:13:22.131Z,2.60
2019-02-02T19:15:51.593Z,2.50
2019-02-02T19:18:21.029Z,2.60
2019-02-02T19:20:53.030Z,2.50
2019-02-02T19:23:25.478Z,2.50
2019-02-02T19:25:53.599Z,2.50
2019-02-02T19:28:22.951Z,2.50
2019-02-02T19:30:53.624Z,2.60
2019-02-02T19:33:23.214Z,2.60
2019-02-02T19:35:52.688Z,2.60
2019-02-02T19:38:22.135Z,2.60
2019-02-02T19:40:53.304Z,2.60
2019-02-02T19:43:22.734Z,2.70
2019-02-02T19:45:53.717Z,2.70
2019-02-02T19:48:23.301Z,2.70
2019-02-02T19:50:52.903Z,2.70
2019-02-02T19:53:22.439Z,2.70
2019-02-02T19:55:51.851Z,2.70
2019-02-02T19:58:21.272Z,2.70
2019-02-02T20:00:50.751Z,2.60
2019-02-02T20:03:21.775Z,2.60
2019-02-02T20:05:51.387Z,2.60
2019-02-02T20:08:20.923Z,2.50
2019-02-02T20:10:50.436Z,2.50
2019-02-02T20:13:19.860Z,2.50
2019-02-02T20:15:49.317Z,2.50
2019-02-02T20:18:18.675Z,2.50
2019-02-02T20:20:48.191Z,2.50
2019-02-02T20:23:17.563Z,2.50
2019-02-02T20:25:47.095Z,2.50
2019-02-02T20:28:18.303Z,2.50
2019-02-02T20:30:47.711Z,2.40
2019-02-02T20:33:19.998Z,2.40
2019-02-02T20:35:48.624Z,2.40
2019-02-02T20:38:18.179Z,2.40
2019-02-02T20:40:47.698Z,2.40
2019-02-02T20:43:17.203Z,2.40
2019-02-02T20:45:46.672Z,2.40
2019-02-02T20:48:16.109Z,2.30
2019-02-02T20:50:45.585Z,2.40
2019-02-02T20:53:15.061Z,2.30
2019-02-02T20:55:45.319Z,2.40
2019-02-02T20:58:14.834Z,2.40
2019-02-02T21:00:44.383Z,2.40
2019-02-02T21:03:14.543Z,2.50
2019-02-02T21:05:52.001Z,2.50
2019-02-02T21:08:15.353Z,2.40
2019-02-02T21:10:46.290Z,2.30
2019-02-02T21:13:16.219Z,2.10
2019-02-02T21:15:49.828Z,1.90
2019-02-02T21:18:19.689Z,1.70
2019-02-02T21:20:49.228Z,1.70
2019-02-02T21:23:20.246Z,1.60
2019-02-02T21:25:49.748Z,1.50
2019-02-02T21:28:19.211Z,1.40
2019-02-02T21:30:49.091Z,1.40
2019-02-02T21:33:18.630Z,1.40
2019-02-02T21:35:48.925Z,1.40
2019-02-02T21:38:18.747Z,1.30
2019-02-02T21:40:48.236Z,1.10
2019-02-02T21:43:18.168Z,1.10
2019-02-02T21:45:47.536Z,1.00
2019-02-02T21:48:17.068Z,0.90
2019-02-02T21:50:46.416Z,0.80
2019-02-02T21:53:15.955Z,0.80
2019-02-02T21:55:45.460Z,0.80
2019-02-02T21:58:14.933Z,0.80
2019-02-02T22:00:44.474Z,0.90
2019-02-02T22:03:13.959Z,1.10
2019-02-02T22:05:43.387Z,1.10
2019-02-02T22:08:12.927Z,1.10
2019-02-02T22:10:42.734Z,1.20
2019-02-02T22:13:12.197Z,1.20
2019-02-02T22:15:41.638Z,1.20
2019-02-02T22:18:11.174Z,1.20
2019-02-02T22:20:40.703Z,1.20
2019-02-02T22:23:10.639Z,1.40
2019-02-02T22:25:40.167Z,1.50
2019-02-02T22:28:09.788Z,1.70
2019-02-02T22:30:39.167Z,1.80
2019-02-02T22:33:08.642Z,1.80
2019-02-02T22:35:38.248Z,1.80
2019-02-02T22:38:07.782Z,1.90
2019-02-02T22:40:37.334Z,2.00
2019-02-02T22:43:06.975Z,2.00
2019-02-02T22:45:37.980Z,1.90
2019-02-02T22:48:07.650Z,1.80
2019-02-02T22:50:49.790Z,1.70
2019-02-02T22:53:19.340Z,1.50
2019-02-02T22:55:48.810Z,1.30
2019-02-02T22:58:20.151Z,1.20
2019-02-02T23:01:04.269Z,1.20
2019-02-02T23:03:48.902Z,1.20
2019-02-02T23:06:39.227Z,1.20
2019-02-02T23:09:39.943Z,1.10
2019-02-02T23:12:42.426Z,1.00
2019-02-02T23:15:37.681Z,0.90
2019-02-02T23:18:07.291Z,0.80
2019-02-02T23:20:36.831Z,0.60
2019-02-02T23:23:06.339Z,0.50
2019-02-02T23:25:35.818Z,0.50
2019-02-02T23:28:05.529Z,0.40
2019-02-02T23:30:34.960Z,0.40
2019-02-02T23:33:04.479Z,0.40
2019-02-02T23:35:33.944Z,0.40
2019-02-02T23:38:03.568Z,0.40
2019-02-02T23:40:33.354Z,0.50
2019-02-02T23:43:02.800Z,0.50
2019-02-02T23:45:32.549Z,0.50
2019-02-02T23:48:03.624Z,0.50
2019-02-02T23:50:33.158Z,0.60
2019-02-02T23:53:03.002Z,0.60
2019-02-02T23:55:32.476Z,0.50
2019-02-02T23:58:01.971Z,0.50
